sensor_id;sensor_type;location;lat;lon;timestamp;temperature;humidity
74657;DHT22;63185;45.642;13.764;2024-01-30T00:01:50;7.90;60.00
74657;DHT22;63185;45.642;13.764;2024-01-30T00:04:15;8.00;58.50
74657;DHT22;63185;45.642;13.764;2024-01-30T00:06:42;7.90;57.60
74657;DHT22;63185;45.642;13.764;2024-01-30T00:09:08;8.00;56.90
74657;DHT22;63185;45.642;13.764;2024-01-30T00:11:34;7.90;58.60
74657;DHT22;63185;45.642;13.764;2024-01-30T00:14:00;8.00;60.20
74657;DHT22;63185;45.642;13.764;2024-01-30T00:16:27;8.00;60.30
74657;DHT22;63185;45.642;13.764;2024-01-30T00:18:53;8.00;60.70
74657;DHT22;63185;45.642;13.764;2024-01-30T00:21:19;8.00;62.00
74657;DHT22;63185;45.642;13.764;2024-01-30T00:23:45;8.00;62.20
74657;DHT22;63185;45.642;13.764;2024-01-30T00:26:11;8.00;62.30
74657;DHT22;63185;45.642;13.764;2024-01-30T00:28:37;8.00;62.40
74657;DHT22;63185;45.642;13.764;2024-01-30T00:31:03;7.90;63.40
74657;DHT22;63185;45.642;13.764;2024-01-30T00:33:29;7.90;64.20
74657;DHT22;63185;45.642;13.764;2024-01-30T00:35:55;7.90;64.60
74657;DHT22;63185;45.642;13.764;2024-01-30T00:38:21;7.80;65.50
74657;DHT22;63185;45.642;13.764;2024-01-30T00:40:46;7.80;66.30
74657;DHT22;63185;45.642;13.764;2024-01-30T00:43:12;7.80;67.20
74657;DHT22;63185;45.642;13.764;2024-01-30T00:45:38;7.80;67.50
74657;DHT22;63185;45.642;13.764;2024-01-30T00:48:03;7.80;68.10
74657;DHT22;63185;45.642;13.764;2024-01-30T00:50:29;7.80;69.20
74657;DHT22;63185;45.642;13.764;2024-01-30T00:52:55;7.70;69.90
74657;DHT22;63185;45.642;13.764;2024-01-30T00:55:21;7.70;70.00
74657;DHT22;63185;45.642;13.764;2024-01-30T00:57:46;7.60;70.50
74657;DHT22;63185;45.642;13.764;2024-01-30T01:00:13;7.60;70.80
74657;DHT22;63185;45.642;13.764;2024-01-30T01:02:42;7.60;71.00
74657;DHT22;63185;45.642;13.764;2024-01-30T01:05:08;7.60;71.60
74657;DHT22;63185;45.642;13.764;2024-01-30T01:07:34;7.60;71.70
74657;DHT22;63185;45.642;13.764;2024-01-30T01:10:00;7.60;72.20
74657;DHT22;63185;45.642;13.764;2024-01-30T01:12:26;7.60;72.50
74657;DHT22;63185;45.642;13.764;2024-01-30T01:14:51;7.50;73.70
74657;DHT22;63185;45.642;13.764;2024-01-30T01:17:17;7.50;74.40
74657;DHT22;63185;45.642;13.764;2024-01-30T01:19:44;7.50;74.00
74657;DHT22;63185;45.642;13.764;2024-01-30T01:22:10;7.50;73.90
74657;DHT22;63185;45.642;13.764;2024-01-30T01:24:36;7.60;73.40
74657;DHT22;63185;45.642;13.764;2024-01-30T01:27:02;7.50;73.10
74657;DHT22;63185;45.642;13.764;2024-01-30T01:29:28;7.40;73.00
74657;DHT22;63185;45.642;13.764;2024-01-30T01:31:58;7.40;73.40
74657;DHT22;63185;45.642;13.764;2024-01-30T01:34:23;7.30;73.70
74657;DHT22;63185;45.642;13.764;2024-01-30T01:36:49;7.30;74.50
74657;DHT22;63185;45.642;13.764;2024-01-30T01:39:15;7.30;74.90
74657;DHT22;63185;45.642;13.764;2024-01-30T01:41:41;7.30;75.00
74657;DHT22;63185;45.642;13.764;2024-01-30T01:44:07;7.20;75.70
74657;DHT22;63185;45.642;13.764;2024-01-30T01:46:34;7.20;76.20
74657;DHT22;63185;45.642;13.764;2024-01-30T01:49:04;7.20;76.30
74657;DHT22;63185;45.642;13.764;2024-01-30T01:51:31;7.20;76.40
74657;DHT22;63185;45.642;13.764;2024-01-30T01:54:04;7.20;76.90
74657;DHT22;63185;45.642;13.764;2024-01-30T01:56:31;7.30;78.10
74657;DHT22;63185;45.642;13.764;2024-01-30T01:59:00;7.30;78.20
74657;DHT22;63185;45.642;13.764;2024-01-30T02:01:29;7.30;78.10
74657;DHT22;63185;45.642;13.764;2024-01-30T02:03:55;7.30;77.80
74657;DHT22;63185;45.642;13.764;2024-01-30T02:06:21;7.20;77.80
74657;DHT22;63185;45.642;13.764;2024-01-30T02:08:48;7.20;77.50
74657;DHT22;63185;45.642;13.764;2024-01-30T02:11:13;7.20;77.20
74657;DHT22;63185;45.642;13.764;2024-01-30T02:13:41;7.10;77.00
74657;DHT22;63185;45.642;13.764;2024-01-30T02:16:06;7.20;76.90
74657;DHT22;63185;45.642;13.764;2024-01-30T02:18:32;7.20;76.50
74657;DHT22;63185;45.642;13.764;2024-01-30T02:20:58;7.20;76.50
74657;DHT22;63185;45.642;13.764;2024-01-30T02:23:27;7.20;76.50
74657;DHT22;63185;45.642;13.764;2024-01-30T02:25:53;7.10;76.40
74657;DHT22;63185;45.642;13.764;2024-01-30T02:28:19;7.10;76.60
74657;DHT22;63185;45.642;13.764;2024-01-30T02:30:46;7.10;76.30
74657;DHT22;63185;45.642;13.764;2024-01-30T02:33:12;7.20;75.60
74657;DHT22;63185;45.642;13.764;2024-01-30T02:35:38;7.20;75.00
74657;DHT22;63185;45.642;13.764;2024-01-30T02:38:04;7.20;74.90
74657;DHT22;63185;45.642;13.764;2024-01-30T02:40:30;7.20;74.30
74657;DHT22;63185;45.642;13.764;2024-01-30T02:42:57;7.20;74.10
74657;DHT22;63185;45.642;13.764;2024-01-30T02:45:23;7.20;73.70
74657;DHT22;63185;45.642;13.764;2024-01-30T02:47:48;7.30;74.00
74657;DHT22;63185;45.642;13.764;2024-01-30T02:50:14;7.30;74.90
74657;DHT22;63185;45.642;13.764;2024-01-30T02:52:40;7.30;75.50
74657;DHT22;63185;45.642;13.764;2024-01-30T02:55:06;7.40;75.60
74657;DHT22;63185;45.642;13.764;2024-01-30T02:57:32;7.50;75.90
74657;DHT22;63185;45.642;13.764;2024-01-30T02:59:58;7.50;75.90
74657;DHT22;63185;45.642;13.764;2024-01-30T03:02:24;7.40;75.80
74657;DHT22;63185;45.642;13.764;2024-01-30T03:04:49;7.30;76.20
74657;DHT22;63185;45.642;13.764;2024-01-30T03:07:15;7.20;76.40
74657;DHT22;63185;45.642;13.764;2024-01-30T03:09:41;7.10;76.50
74657;DHT22;63185;45.642;13.764;2024-01-30T03:12:09;7.10;76.70
74657;DHT22;63185;45.642;13.764;2024-01-30T03:14:37;7.10;76.90
74657;DHT22;63185;45.642;13.764;2024-01-30T03:17:03;7.10;77.00
74657;DHT22;63185;45.642;13.764;2024-01-30T03:19:30;7.10;77.00
74657;DHT22;63185;45.642;13.764;2024-01-30T03:21:56;7.10;76.80
74657;DHT22;63185;45.642;13.764;2024-01-30T03:24:21;7.10;76.30
74657;DHT22;63185;45.642;13.764;2024-01-30T03:26:48;7.00;76.50
74657;DHT22;63185;45.642;13.764;2024-01-30T03:29:13;7.00;76.50
74657;DHT22;63185;45.642;13.764;2024-01-30T03:31:39;7.00;76.40
74657;DHT22;63185;45.642;13.764;2024-01-30T03:34:05;7.00;76.20
74657;DHT22;63185;45.642;13.764;2024-01-30T03:36:30;7.00;76.00
74657;DHT22;63185;45.642;13.764;2024-01-30T03:38:59;7.00;75.90
74657;DHT22;63185;45.642;13.764;2024-01-30T03:41:24;6.90;75.70
74657;DHT22;63185;45.642;13.764;2024-01-30T03:43:50;6.90;75.60
74657;DHT22;63185;45.642;13.764;2024-01-30T03:46:16;6.90;75.20
74657;DHT22;63185;45.642;13.764;2024-01-30T03:48:41;7.00;74.50
74657;DHT22;63185;45.642;13.764;2024-01-30T03:51:07;7.10;74.10
74657;DHT22;63185;45.642;13.764;2024-01-30T03:53:33;7.00;74.10
74657;DHT22;63185;45.642;13.764;2024-01-30T03:55:59;7.00;74.10
74657;DHT22;63185;45.642;13.764;2024-01-30T03:58:25;7.00;73.90
74657;DHT22;63185;45.642;13.764;2024-01-30T04:00:51;7.00;73.20
74657;DHT22;63185;45.642;13.764;2024-01-30T04:03:17;7.10;72.90
74657;DHT22;63185;45.642;13.764;2024-01-30T04:05:43;7.10;73.10
74657;DHT22;63185;45.642;13.764;2024-01-30T04:08:09;7.10;73.30
74657;DHT22;63185;45.642;13.764;2024-01-30T04:10:34;7.10;73.10
74657;DHT22;63185;45.642;13.764;2024-01-30T04:13:00;7.10;73.00
74657;DHT22;63185;45.642;13.764;2024-01-30T04:15:26;7.10;72.50
74657;DHT22;63185;45.642;13.764;2024-01-30T04:17:52;7.10;72.40
74657;DHT22;63185;45.642;13.764;2024-01-30T04:20:18;7.10;72.10
74657;DHT22;63185;45.642;13.764;2024-01-30T04:22:44;7.00;72.00
74657;DHT22;63185;45.642;13.764;2024-01-30T04:25:10;7.00;72.00
74657;DHT22;63185;45.642;13.764;2024-01-30T04:27:36;7.00;71.50
74657;DHT22;63185;45.642;13.764;2024-01-30T04:30:02;7.00;71.10
74657;DHT22;63185;45.642;13.764;2024-01-30T04:32:28;7.00;70.80
74657;DHT22;63185;45.642;13.764;2024-01-30T04:34:53;7.00;67.60
74657;DHT22;63185;45.642;13.764;2024-01-30T04:37:19;7.10;66.90
74657;DHT22;63185;45.642;13.764;2024-01-30T04:39:44;7.10;66.20
74657;DHT22;63185;45.642;13.764;2024-01-30T04:42:10;7.10;66.10
74657;DHT22;63185;45.642;13.764;2024-01-30T04:44:36;7.10;66.10
74657;DHT22;63185;45.642;13.764;2024-01-30T04:47:01;7.20;66.50
74657;DHT22;63185;45.642;13.764;2024-01-30T04:49:27;7.10;66.70
74657;DHT22;63185;45.642;13.764;2024-01-30T04:51:54;7.30;67.00
74657;DHT22;63185;45.642;13.764;2024-01-30T04:54:21;7.30;67.20
74657;DHT22;63185;45.642;13.764;2024-01-30T04:56:46;7.30;67.70
74657;DHT22;63185;45.642;13.764;2024-01-30T04:59:12;7.20;68.10
74657;DHT22;63185;45.642;13.764;2024-01-30T05:01:37;7.20;68.60
74657;DHT22;63185;45.642;13.764;2024-01-30T05:04:03;7.10;69.30
74657;DHT22;63185;45.642;13.764;2024-01-30T05:06:29;7.00;69.70
74657;DHT22;63185;45.642;13.764;2024-01-30T05:08:55;6.90;70.30
74657;DHT22;63185;45.642;13.764;2024-01-30T05:11:21;6.90;70.70
74657;DHT22;63185;45.642;13.764;2024-01-30T05:13:47;6.90;70.90
74657;DHT22;63185;45.642;13.764;2024-01-30T05:16:13;6.80;71.10
74657;DHT22;63185;45.642;13.764;2024-01-30T05:18:38;6.70;71.40
74657;DHT22;63185;45.642;13.764;2024-01-30T05:21:05;6.70;71.40
74657;DHT22;63185;45.642;13.764;2024-01-30T05:23:30;6.80;71.30
74657;DHT22;63185;45.642;13.764;2024-01-30T05:25:56;6.80;71.30
74657;DHT22;63185;45.642;13.764;2024-01-30T05:28:22;6.80;71.30
74657;DHT22;63185;45.642;13.764;2024-01-30T05:30:47;6.80;71.00
74657;DHT22;63185;45.642;13.764;2024-01-30T05:33:13;6.80;70.80
74657;DHT22;63185;45.642;13.764;2024-01-30T05:35:39;6.80;71.10
74657;DHT22;63185;45.642;13.764;2024-01-30T05:38:04;6.70;70.80
74657;DHT22;63185;45.642;13.764;2024-01-30T05:40:30;6.70;70.60
74657;DHT22;63185;45.642;13.764;2024-01-30T05:42:56;6.70;70.60
74657;DHT22;63185;45.642;13.764;2024-01-30T05:45:26;6.80;70.80
74657;DHT22;63185;45.642;13.764;2024-01-30T05:47:52;6.80;70.70
74657;DHT22;63185;45.642;13.764;2024-01-30T05:50:18;6.80;70.70
74657;DHT22;63185;45.642;13.764;2024-01-30T05:52:44;6.80;70.30
74657;DHT22;63185;45.642;13.764;2024-01-30T05:55:11;6.80;70.10
74657;DHT22;63185;45.642;13.764;2024-01-30T05:57:37;6.80;69.50
74657;DHT22;63185;45.642;13.764;2024-01-30T06:00:04;6.80;68.90
74657;DHT22;63185;45.642;13.764;2024-01-30T06:02:30;7.00;70.00
74657;DHT22;63185;45.642;13.764;2024-01-30T06:04:56;6.90;69.70
74657;DHT22;63185;45.642;13.764;2024-01-30T06:07:22;6.80;70.10
74657;DHT22;63185;45.642;13.764;2024-01-30T06:09:48;6.60;70.70
74657;DHT22;63185;45.642;13.764;2024-01-30T06:12:13;6.60;71.60
74657;DHT22;63185;45.642;13.764;2024-01-30T06:14:39;6.60;72.10
74657;DHT22;63185;45.642;13.764;2024-01-30T06:17:05;6.60;72.00
74657;DHT22;63185;45.642;13.764;2024-01-30T06:19:31;6.50;72.40
74657;DHT22;63185;45.642;13.764;2024-01-30T06:21:57;6.40;72.10
74657;DHT22;63185;45.642;13.764;2024-01-30T06:24:22;6.30;72.00
74657;DHT22;63185;45.642;13.764;2024-01-30T06:26:48;6.30;71.00
74657;DHT22;63185;45.642;13.764;2024-01-30T06:29:14;6.30;69.50
74657;DHT22;63185;45.642;13.764;2024-01-30T06:31:41;6.30;69.30
74657;DHT22;63185;45.642;13.764;2024-01-30T06:34:12;6.40;68.20
74657;DHT22;63185;45.642;13.764;2024-01-30T06:36:38;6.40;68.30
74657;DHT22;63185;45.642;13.764;2024-01-30T06:39:04;6.50;68.40
74657;DHT22;63185;45.642;13.764;2024-01-30T06:41:29;6.60;68.40
74657;DHT22;63185;45.642;13.764;2024-01-30T06:43:56;6.60;68.40
74657;DHT22;63185;45.642;13.764;2024-01-30T06:46:21;6.60;68.60
74657;DHT22;63185;45.642;13.764;2024-01-30T06:48:47;6.70;68.70
74657;DHT22;63185;45.642;13.764;2024-01-30T06:51:13;6.70;68.80
74657;DHT22;63185;45.642;13.764;2024-01-30T06:53:38;6.80;68.90
74657;DHT22;63185;45.642;13.764;2024-01-30T06:56:05;6.80;69.00
74657;DHT22;63185;45.642;13.764;2024-01-30T06:58:31;6.90;68.80
74657;DHT22;63185;45.642;13.764;2024-01-30T07:00:57;6.90;68.70
74657;DHT22;63185;45.642;13.764;2024-01-30T07:03:23;7.00;67.50
74657;DHT22;63185;45.642;13.764;2024-01-30T07:05:49;7.00;66.80
74657;DHT22;63185;45.642;13.764;2024-01-30T07:08:15;7.00;66.20
74657;DHT22;63185;45.642;13.764;2024-01-30T07:10:46;7.10;65.60
74657;DHT22;63185;45.642;13.764;2024-01-30T07:13:12;7.10;66.00
74657;DHT22;63185;45.642;13.764;2024-01-30T07:15:37;7.00;66.40
74657;DHT22;63185;45.642;13.764;2024-01-30T07:18:04;7.00;66.90
74657;DHT22;63185;45.642;13.764;2024-01-30T07:20:30;7.00;67.00
74657;DHT22;63185;45.642;13.764;2024-01-30T07:22:58;7.00;67.00
74657;DHT22;63185;45.642;13.764;2024-01-30T07:25:24;7.00;65.90
74657;DHT22;63185;45.642;13.764;2024-01-30T07:27:52;7.10;65.70
74657;DHT22;63185;45.642;13.764;2024-01-30T07:30:19;7.10;64.20
74657;DHT22;63185;45.642;13.764;2024-01-30T07:32:45;7.10;64.00
74657;DHT22;63185;45.642;13.764;2024-01-30T07:35:11;7.10;63.50
74657;DHT22;63185;45.642;13.764;2024-01-30T07:37:37;7.10;62.70
74657;DHT22;63185;45.642;13.764;2024-01-30T07:40:03;7.10;61.50
74657;DHT22;63185;45.642;13.764;2024-01-30T07:42:29;7.10;61.60
74657;DHT22;63185;45.642;13.764;2024-01-30T07:44:54;7.10;62.00
74657;DHT22;63185;45.642;13.764;2024-01-30T07:47:20;7.10;62.40
74657;DHT22;63185;45.642;13.764;2024-01-30T07:49:46;7.20;63.10
74657;DHT22;63185;45.642;13.764;2024-01-30T07:52:13;7.20;62.90
74657;DHT22;63185;45.642;13.764;2024-01-30T07:54:47;7.30;63.20
74657;DHT22;63185;45.642;13.764;2024-01-30T07:57:13;7.30;63.00
74657;DHT22;63185;45.642;13.764;2024-01-30T07:59:39;7.30;63.00
74657;DHT22;63185;45.642;13.764;2024-01-30T08:02:04;7.30;64.40
74657;DHT22;63185;45.642;13.764;2024-01-30T08:04:30;7.30;67.20
74657;DHT22;63185;45.642;13.764;2024-01-30T08:06:56;7.30;68.10
74657;DHT22;63185;45.642;13.764;2024-01-30T08:09:22;7.30;69.60
74657;DHT22;63185;45.642;13.764;2024-01-30T08:11:48;7.30;71.70
74657;DHT22;63185;45.642;13.764;2024-01-30T08:14:13;7.30;73.50
74657;DHT22;63185;45.642;13.764;2024-01-30T08:16:39;7.30;73.70
74657;DHT22;63185;45.642;13.764;2024-01-30T08:19:05;7.30;73.60
74657;DHT22;63185;45.642;13.764;2024-01-30T08:21:31;7.20;74.40
74657;DHT22;63185;45.642;13.764;2024-01-30T08:24:05;7.30;75.30
74657;DHT22;63185;45.642;13.764;2024-01-30T08:26:32;7.40;75.80
74657;DHT22;63185;45.642;13.764;2024-01-30T08:28:58;7.40;75.60
74657;DHT22;63185;45.642;13.764;2024-01-30T08:31:24;7.40;75.10
74657;DHT22;63185;45.642;13.764;2024-01-30T08:33:50;7.30;75.00
74657;DHT22;63185;45.642;13.764;2024-01-30T08:36:16;7.40;74.60
74657;DHT22;63185;45.642;13.764;2024-01-30T08:38:42;7.60;75.20
74657;DHT22;63185;45.642;13.764;2024-01-30T08:41:08;7.60;74.30
74657;DHT22;63185;45.642;13.764;2024-01-30T08:43:34;7.70;73.80
74657;DHT22;63185;45.642;13.764;2024-01-30T08:46:00;7.80;73.10
74657;DHT22;63185;45.642;13.764;2024-01-30T08:48:26;7.90;72.40
74657;DHT22;63185;45.642;13.764;2024-01-30T08:50:52;7.90;72.50
74657;DHT22;63185;45.642;13.764;2024-01-30T08:53:18;8.00;71.90
74657;DHT22;63185;45.642;13.764;2024-01-30T08:55:44;8.00;71.60
74657;DHT22;63185;45.642;13.764;2024-01-30T08:58:10;8.00;71.70
74657;DHT22;63185;45.642;13.764;2024-01-30T09:00:36;8.00;72.00
74657;DHT22;63185;45.642;13.764;2024-01-30T09:03:02;8.10;72.20
74657;DHT22;63185;45.642;13.764;2024-01-30T09:05:28;8.10;72.10
74657;DHT22;63185;45.642;13.764;2024-01-30T09:07:54;8.30;71.90
74657;DHT22;63185;45.642;13.764;2024-01-30T09:10:20;8.40;71.50
74657;DHT22;63185;45.642;13.764;2024-01-30T09:12:46;8.40;70.50
74657;DHT22;63185;45.642;13.764;2024-01-30T09:15:12;8.30;70.90
74657;DHT22;63185;45.642;13.764;2024-01-30T09:17:38;8.40;71.30
74657;DHT22;63185;45.642;13.764;2024-01-30T09:20:04;8.40;70.90
74657;DHT22;63185;45.642;13.764;2024-01-30T09:22:30;8.30;71.00
74657;DHT22;63185;45.642;13.764;2024-01-30T09:24:57;8.30;72.10
74657;DHT22;63185;45.642;13.764;2024-01-30T09:27:22;8.30;71.90
74657;DHT22;63185;45.642;13.764;2024-01-30T09:29:48;8.30;71.70
74657;DHT22;63185;45.642;13.764;2024-01-30T09:32:14;8.10;71.60
74657;DHT22;63185;45.642;13.764;2024-01-30T09:34:39;8.10;72.20
74657;DHT22;63185;45.642;13.764;2024-01-30T09:37:05;8.10;72.20
74657;DHT22;63185;45.642;13.764;2024-01-30T09:39:31;8.10;72.50
74657;DHT22;63185;45.642;13.764;2024-01-30T09:42:05;8.10;72.50
74657;DHT22;63185;45.642;13.764;2024-01-30T09:44:31;8.20;72.40
74657;DHT22;63185;45.642;13.764;2024-01-30T09:46:59;8.10;72.30
74657;DHT22;63185;45.642;13.764;2024-01-30T09:49:32;8.10;72.00
74657;DHT22;63185;45.642;13.764;2024-01-30T09:51:59;8.10;71.50
74657;DHT22;63185;45.642;13.764;2024-01-30T09:54:25;8.20;71.00
74657;DHT22;63185;45.642;13.764;2024-01-30T09:56:51;8.20;70.50
74657;DHT22;63185;45.642;13.764;2024-01-30T09:59:16;8.30;69.40
74657;DHT22;63185;45.642;13.764;2024-01-30T10:01:42;8.30;69.90
74657;DHT22;63185;45.642;13.764;2024-01-30T10:04:08;8.30;69.90
74657;DHT22;63185;45.642;13.764;2024-01-30T10:06:34;8.40;69.00
74657;DHT22;63185;45.642;13.764;2024-01-30T10:09:00;8.40;68.00
74657;DHT22;63185;45.642;13.764;2024-01-30T10:11:26;8.60;66.30
74657;DHT22;63185;45.642;13.764;2024-01-30T10:13:51;8.60;66.30
74657;DHT22;63185;45.642;13.764;2024-01-30T10:16:17;8.70;66.00
74657;DHT22;63185;45.642;13.764;2024-01-30T10:18:42;8.80;65.60
74657;DHT22;63185;45.642;13.764;2024-01-30T10:21:09;9.10;64.90
74657;DHT22;63185;45.642;13.764;2024-01-30T10:23:35;9.20;63.50
74657;DHT22;63185;45.642;13.764;2024-01-30T10:26:04;9.30;62.30
74657;DHT22;63185;45.642;13.764;2024-01-30T10:28:29;9.50;61.90
74657;DHT22;63185;45.642;13.764;2024-01-30T10:31:02;9.60;63.30
74657;DHT22;63185;45.642;13.764;2024-01-30T10:33:30;9.70;64.30
74657;DHT22;63185;45.642;13.764;2024-01-30T10:36:01;9.60;64.70
74657;DHT22;63185;45.642;13.764;2024-01-30T10:38:31;9.80;64.60
74657;DHT22;63185;45.642;13.764;2024-01-30T10:40:59;9.80;64.10
74657;DHT22;63185;45.642;13.764;2024-01-30T10:43:32;9.90;64.30
74657;DHT22;63185;45.642;13.764;2024-01-30T10:46:19;9.80;64.80
74657;DHT22;63185;45.642;13.764;2024-01-30T10:48:51;9.70;65.80
74657;DHT22;63185;45.642;13.764;2024-01-30T10:51:22;9.70;64.90
74657;DHT22;63185;45.642;13.764;2024-01-30T10:53:49;9.60;64.30
74657;DHT22;63185;45.642;13.764;2024-01-30T10:56:16;9.60;64.80
74657;DHT22;63185;45.642;13.764;2024-01-30T10:58:42;9.50;64.30
74657;DHT22;63185;45.642;13.764;2024-01-30T11:01:08;9.40;64.00
74657;DHT22;63185;45.642;13.764;2024-01-30T11:03:35;9.40;62.80
74657;DHT22;63185;45.642;13.764;2024-01-30T11:06:02;9.30;63.40
74657;DHT22;63185;45.642;13.764;2024-01-30T11:08:31;9.40;63.00
74657;DHT22;63185;45.642;13.764;2024-01-30T11:10:57;9.50;62.80
74657;DHT22;63185;45.642;13.764;2024-01-30T11:13:30;9.50;62.20
74657;DHT22;63185;45.642;13.764;2024-01-30T11:16:03;9.40;62.60
74657;DHT22;63185;45.642;13.764;2024-01-30T11:18:30;9.40;63.00
74657;DHT22;63185;45.642;13.764;2024-01-30T11:20:57;9.40;62.70
74657;DHT22;63185;45.642;13.764;2024-01-30T11:23:23;9.40;63.10
74657;DHT22;63185;45.642;13.764;2024-01-30T11:25:49;9.40;62.20
74657;DHT22;63185;45.642;13.764;2024-01-30T11:28:18;9.50;62.80
74657;DHT22;63185;45.642;13.764;2024-01-30T11:30:44;9.60;61.50
74657;DHT22;63185;45.642;13.764;2024-01-30T11:33:11;9.60;59.30
74657;DHT22;63185;45.642;13.764;2024-01-30T11:35:39;9.60;58.00
74657;DHT22;63185;45.642;13.764;2024-01-30T11:38:06;9.90;57.70
74657;DHT22;63185;45.642;13.764;2024-01-30T11:40:33;9.90;57.30
74657;DHT22;63185;45.642;13.764;2024-01-30T11:43:00;10.00;55.40
74657;DHT22;63185;45.642;13.764;2024-01-30T11:45:27;10.10;53.20
74657;DHT22;63185;45.642;13.764;2024-01-30T11:47:53;10.20;53.20
74657;DHT22;63185;45.642;13.764;2024-01-30T11:50:19;10.30;52.70
74657;DHT22;63185;45.642;13.764;2024-01-30T11:52:45;10.40;52.40
74657;DHT22;63185;45.642;13.764;2024-01-30T11:55:11;10.50;52.10
74657;DHT22;63185;45.642;13.764;2024-01-30T11:57:37;10.60;52.30
74657;DHT22;63185;45.642;13.764;2024-01-30T12:00:05;10.60;52.00
74657;DHT22;63185;45.642;13.764;2024-01-30T12:02:39;10.60;52.70
74657;DHT22;63185;45.642;13.764;2024-01-30T12:05:05;10.80;52.00
74657;DHT22;63185;45.642;13.764;2024-01-30T12:07:32;10.90;52.40
74657;DHT22;63185;45.642;13.764;2024-01-30T12:09:57;11.00;52.20
74657;DHT22;63185;45.642;13.764;2024-01-30T12:12:27;11.00;51.60
74657;DHT22;63185;45.642;13.764;2024-01-30T12:14:54;11.00;51.50
74657;DHT22;63185;45.642;13.764;2024-01-30T12:17:31;10.90;51.60
74657;DHT22;63185;45.642;13.764;2024-01-30T12:20:07;11.00;51.70
74657;DHT22;63185;45.642;13.764;2024-01-30T12:22:38;10.90;52.50
74657;DHT22;63185;45.642;13.764;2024-01-30T12:25:14;10.90;53.00
74657;DHT22;63185;45.642;13.764;2024-01-30T12:27:43;10.90;53.30
74657;DHT22;63185;45.642;13.764;2024-01-30T12:30:11;10.70;54.70
74657;DHT22;63185;45.642;13.764;2024-01-30T12:32:40;10.70;55.40
74657;DHT22;63185;45.642;13.764;2024-01-30T12:35:12;10.70;55.80
74657;DHT22;63185;45.642;13.764;2024-01-30T12:37:38;10.60;55.40
74657;DHT22;63185;45.642;13.764;2024-01-30T12:40:05;10.60;56.20
74657;DHT22;63185;45.642;13.764;2024-01-30T12:42:35;10.60;58.30
74657;DHT22;63185;45.642;13.764;2024-01-30T12:45:02;10.60;59.90
74657;DHT22;63185;45.642;13.764;2024-01-30T12:47:28;10.70;59.20
74657;DHT22;63185;45.642;13.764;2024-01-30T12:49:54;10.70;58.70
74657;DHT22;63185;45.642;13.764;2024-01-30T12:52:21;10.70;57.10
74657;DHT22;63185;45.642;13.764;2024-01-30T12:54:48;10.60;55.50
74657;DHT22;63185;45.642;13.764;2024-01-30T12:57:13;10.60;58.00
74657;DHT22;63185;45.642;13.764;2024-01-30T12:59:39;10.40;59.20
74657;DHT22;63185;45.642;13.764;2024-01-30T13:02:05;10.40;59.20
74657;DHT22;63185;45.642;13.764;2024-01-30T13:04:32;10.40;59.10
74657;DHT22;63185;45.642;13.764;2024-01-30T13:06:58;10.40;58.80
74657;DHT22;63185;45.642;13.764;2024-01-30T13:09:24;10.40;58.90
74657;DHT22;63185;45.642;13.764;2024-01-30T13:11:50;10.30;59.40
74657;DHT22;63185;45.642;13.764;2024-01-30T13:14:17;10.40;59.70
74657;DHT22;63185;45.642;13.764;2024-01-30T13:16:43;10.40;60.30
74657;DHT22;63185;45.642;13.764;2024-01-30T13:19:08;10.50;60.20
74657;DHT22;63185;45.642;13.764;2024-01-30T13:21:34;10.50;60.20
74657;DHT22;63185;45.642;13.764;2024-01-30T13:24:00;10.60;59.70
74657;DHT22;63185;45.642;13.764;2024-01-30T13:26:25;10.60;59.30
74657;DHT22;63185;45.642;13.764;2024-01-30T13:28:51;10.60;59.20
74657;DHT22;63185;45.642;13.764;2024-01-30T13:31:17;10.60;59.60
74657;DHT22;63185;45.642;13.764;2024-01-30T13:33:43;10.70;59.60
74657;DHT22;63185;45.642;13.764;2024-01-30T13:36:10;10.70;59.50
74657;DHT22;63185;45.642;13.764;2024-01-30T13:38:36;10.70;59.10
74657;DHT22;63185;45.642;13.764;2024-01-30T13:41:02;10.60;58.90
74657;DHT22;63185;45.642;13.764;2024-01-30T13:43:28;10.60;58.70
74657;DHT22;63185;45.642;13.764;2024-01-30T13:45:54;10.60;59.00
74657;DHT22;63185;45.642;13.764;2024-01-30T13:48:20;10.60;58.00
74657;DHT22;63185;45.642;13.764;2024-01-30T13:50:46;10.50;57.90
74657;DHT22;63185;45.642;13.764;2024-01-30T13:53:11;10.30;57.60
74657;DHT22;63185;45.642;13.764;2024-01-30T13:55:37;10.30;57.20
74657;DHT22;63185;45.642;13.764;2024-01-30T13:58:05;10.30;56.80
74657;DHT22;63185;45.642;13.764;2024-01-30T14:00:31;10.20;57.40
74657;DHT22;63185;45.642;13.764;2024-01-30T14:02:56;10.20;58.10
74657;DHT22;63185;45.642;13.764;2024-01-30T14:05:26;10.30;58.00
74657;DHT22;63185;45.642;13.764;2024-01-30T14:07:56;10.30;58.60
74657;DHT22;63185;45.642;13.764;2024-01-30T14:10:23;10.40;58.80
74657;DHT22;63185;45.642;13.764;2024-01-30T14:12:48;10.40;58.80
74657;DHT22;63185;45.642;13.764;2024-01-30T14:15:14;10.60;58.40
74657;DHT22;63185;45.642;13.764;2024-01-30T14:17:41;10.50;58.00
74657;DHT22;63185;45.642;13.764;2024-01-30T14:20:07;10.40;57.60
74657;DHT22;63185;45.642;13.764;2024-01-30T14:22:36;10.40;57.60
74657;DHT22;63185;45.642;13.764;2024-01-30T14:25:02;10.50;56.50
74657;DHT22;63185;45.642;13.764;2024-01-30T14:27:31;10.60;55.10
74657;DHT22;63185;45.642;13.764;2024-01-30T14:29:57;10.40;54.80
74657;DHT22;63185;45.642;13.764;2024-01-30T14:32:24;10.40;54.90
74657;DHT22;63185;45.642;13.764;2024-01-30T14:34:53;10.40;55.20
74657;DHT22;63185;45.642;13.764;2024-01-30T14:37:20;10.50;54.70
74657;DHT22;63185;45.642;13.764;2024-01-30T14:39:45;10.40;54.20
74657;DHT22;63185;45.642;13.764;2024-01-30T14:42:11;10.40;54.80
74657;DHT22;63185;45.642;13.764;2024-01-30T14:44:37;10.60;54.80
74657;DHT22;63185;45.642;13.764;2024-01-30T14:47:03;10.80;52.70
74657;DHT22;63185;45.642;13.764;2024-01-30T14:49:28;11.30;52.30
74657;DHT22;63185;45.642;13.764;2024-01-30T14:51:54;11.90;50.60
74657;DHT22;63185;45.642;13.764;2024-01-30T14:54:20;12.30;48.90
74657;DHT22;63185;45.642;13.764;2024-01-30T14:56:46;12.90;48.30
74657;DHT22;63185;45.642;13.764;2024-01-30T14:59:11;13.70;46.00
74657;DHT22;63185;45.642;13.764;2024-01-30T15:01:37;14.20;43.80
74657;DHT22;63185;45.642;13.764;2024-01-30T15:04:03;14.90;42.90
74657;DHT22;63185;45.642;13.764;2024-01-30T15:06:29;15.30;40.50
74657;DHT22;63185;45.642;13.764;2024-01-30T15:08:54;15.60;39.10
74657;DHT22;63185;45.642;13.764;2024-01-30T15:11:20;15.40;37.60
74657;DHT22;63185;45.642;13.764;2024-01-30T15:13:46;15.80;38.30
74657;DHT22;63185;45.642;13.764;2024-01-30T15:16:12;15.90;37.00
74657;DHT22;63185;45.642;13.764;2024-01-30T15:18:38;16.10;36.60
74657;DHT22;63185;45.642;13.764;2024-01-30T15:21:04;16.70;36.30
74657;DHT22;63185;45.642;13.764;2024-01-30T15:23:29;17.30;34.70